Time;durP1;ratioP1;P1;durP2;ratioP2;P2;SDS_P1;SDS_P2;PMS_P1;PMS_P2;Temp;Humidity;BMP_temperature;BMP_pressure;BME280_temperature;BME280_humidity;BME280_pressure;Samples;Min_cycle;Max_cycle;Signal;HPM_P1;HPM_P2
2022/03/10 00:01:26;;;;;;;21.90;11.93;;;;;;;;;;4954628;28;20070;-79
2022/03/10 00:03:52;;;;;;;18.52;11.30;;;;;;;;;;4938156;28;20497;-79
2022/03/10 00:06:18;;;;;;;19.98;11.35;;;;;;;;;;4956563;28;20129;-79
2022/03/10 00:08:44;;;;;;;21.92;12.30;;;;;;;;;;4945387;28;20149;-79
2022/03/10 00:11:10;;;;;;;20.85;12.20;;;;;;;;;;4946465;28;20429;-79
2022/03/10 00:13:35;;;;;;;21.30;11.95;;;;;;;;;;4966878;28;20151;-79
2022/03/10 00:16:01;;;;;;;21.00;12.27;;;;;;;;;;4957274;28;20066;-79
2022/03/10 00:18:27;;;;;;;26.70;13.35;;;;;;;;;;4961366;28;20066;-79
2022/03/10 00:20:53;;;;;;;23.60;12.40;;;;;;;;;;4957315;28;20070;-79
2022/03/10 00:23:19;;;;;;;25.65;13.45;;;;;;;;;;4949030;28;20045;-79
2022/03/10 00:25:45;;;;;;;24.70;13.93;;;;;;;;;;4953709;28;20040;-79
2022/03/10 00:28:10;;;;;;;24.58;13.27;;;;;;;;;;4942657;28;20053;-79
2022/03/10 00:30:36;;;;;;;22.33;13.23;;;;;;;;;;4946886;28;20405;-79
2022/03/10 00:33:02;;;;;;;24.42;13.13;;;;;;;;;;4963166;28;20062;-79
2022/03/10 00:35:29;;;;;;;22.77;13.73;;;;;;;;;;4945811;28;20126;-79
2022/03/10 00:37:55;;;;;;;22.38;13.02;;;;;;;;;;4965309;28;20676;-79
2022/03/10 00:40:21;;;;;;;22.80;13.23;;;;;;;;;;4950497;28;20039;-79
2022/03/10 00:42:47;;;;;;;23.45;13.13;;;;;;;;;;4981363;28;20574;-79
2022/03/10 00:45:14;;;;;;;25.92;13.43;;;;;;;;;;4929752;28;20071;-79
2022/03/10 00:47:40;;;;;;;24.67;13.23;;;;;;;;;;4941340;28;20447;-79
2022/03/10 00:50:07;;;;;;;26.35;13.57;;;;;;;;;;4956473;28;20041;-79
2022/03/10 00:52:33;;;;;;;25.63;14.13;;;;;;;;;;4948192;28;20047;-79
2022/03/10 00:54:59;;;;;;;26.35;14.82;;;;;;;;;;4963855;28;20443;-79
2022/03/10 00:57:25;;;;;;;25.67;15.10;;;;;;;;;;4950371;28;20056;-79
2022/03/10 00:59:51;;;;;;;23.35;13.30;;;;;;;;;;4952639;28;20122;-79
2022/03/10 01:02:16;;;;;;;22.35;13.30;;;;;;;;;;4965013;28;20066;-79
2022/03/10 01:04:43;;;;;;;25.23;14.75;;;;;;;;;;4935562;28;20094;-79
2022/03/10 01:07:10;;;;;;;22.85;13.52;;;;;;;;;;4958592;28;20042;-79
2022/03/10 01:09:35;;;;;;;28.08;14.48;;;;;;;;;;4939570;28;20387;-79
2022/03/10 01:12:01;;;;;;;25.90;14.20;;;;;;;;;;4954585;28;20063;-78
2022/03/10 01:14:27;;;;;;;25.33;14.57;;;;;;;;;;4956724;28;22330;-78
2022/03/10 01:16:54;;;;;;;28.83;13.77;;;;;;;;;;4950404;28;20477;-79
2022/03/10 01:19:20;;;;;;;23.85;14.43;;;;;;;;;;4962367;28;20043;-78
2022/03/10 01:21:46;;;;;;;21.73;13.10;;;;;;;;;;4971900;28;20054;-78
2022/03/10 01:24:12;;;;;;;23.77;13.82;;;;;;;;;;4961235;28;20129;-78
2022/03/10 01:26:38;;;;;;;23.65;13.70;;;;;;;;;;4942267;28;20066;-78
2022/03/10 01:29:04;;;;;;;25.70;14.15;;;;;;;;;;4947337;28;20039;-79
2022/03/10 01:31:29;;;;;;;24.33;13.95;;;;;;;;;;4964125;28;20116;-78
2022/03/10 01:33:55;;;;;;;26.27;14.65;;;;;;;;;;4937845;28;20047;-79
2022/03/10 01:36:21;;;;;;;27.77;15.00;;;;;;;;;;4927792;28;20105;-79
2022/03/10 01:38:47;;;;;;;25.92;14.63;;;;;;;;;;4937985;28;20567;-79
2022/03/10 01:41:12;;;;;;;23.92;14.48;;;;;;;;;;4943951;28;20122;-79
2022/03/10 01:44:00;;;;;;;25.23;14.32;;;;;;;;;;4961508;28;20099;-79
2022/03/10 01:46:26;;;;;;;25.27;14.45;;;;;;;;;;4923539;28;20043;-79
2022/03/10 01:48:52;;;;;;;26.83;15.00;;;;;;;;;;4936103;28;20066;-79
2022/03/10 01:51:18;;;;;;;27.30;14.77;;;;;;;;;;4938496;28;20050;-79
2022/03/10 01:53:44;;;;;;;27.92;14.90;;;;;;;;;;4947695;28;20050;-79
2022/03/10 01:56:11;;;;;;;27.42;14.63;;;;;;;;;;4941048;28;20043;-79
2022/03/10 01:58:38;;;;;;;28.42;15.65;;;;;;;;;;4962078;28;20042;-79
2022/03/10 02:01:04;;;;;;;29.25;16.00;;;;;;;;;;4954255;28;20063;-79
2022/03/10 02:03:29;;;;;;;29.52;16.58;;;;;;;;;;4943880;28;20508;-79
2022/03/10 02:05:55;;;;;;;34.00;16.75;;;;;;;;;;4937544;28;20039;-79
2022/03/10 02:11:06;;;;;;;32.30;17.30;;;;;;;;;;4958733;28;20354;-79
2022/03/10 02:13:32;;;;;;;32.95;18.13;;;;;;;;;;4940747;28;20043;-79
2022/03/10 02:18:42;;;;;;;33.60;18.25;;;;;;;;;;4963620;28;20177;-79
2022/03/10 02:21:08;;;;;;;34.80;18.35;;;;;;;;;;4948289;28;20492;-79
2022/03/10 02:23:34;;;;;;;33.55;17.80;;;;;;;;;;4956941;28;20561;-79
2022/03/10 02:25:59;;;;;;;35.80;18.13;;;;;;;;;;4940405;28;20085;-79
2022/03/10 02:28:26;;;;;;;34.65;19.23;;;;;;;;;;4944209;28;20121;-79
2022/03/10 02:30:52;;;;;;;31.60;17.58;;;;;;;;;;4963127;28;20043;-79
2022/03/10 02:33:18;;;;;;;40.20;19.50;;;;;;;;;;4940721;28;20050;-79
2022/03/10 02:35:44;;;;;;;38.85;19.15;;;;;;;;;;4962475;28;20523;-79
2022/03/10 02:38:17;;;;;;;37.00;19.08;;;;;;;;;;4947392;28;20510;-79
2022/03/10 02:40:43;;;;;;;32.97;18.42;;;;;;;;;;4953905;28;20548;-79
2022/03/10 02:43:09;;;;;;;35.22;18.60;;;;;;;;;;4951676;28;20122;-79
2022/03/10 02:45:35;;;;;;;36.95;19.08;;;;;;;;;;4963336;28;20066;-79
2022/03/10 02:48:00;;;;;;;35.17;19.27;;;;;;;;;;4964599;28;20404;-79
2022/03/10 02:50:26;;;;;;;34.97;18.48;;;;;;;;;;4963334;28;20074;-79
2022/03/10 02:52:52;;;;;;;34.88;18.92;;;;;;;;;;4950626;28;20053;-79
2022/03/10 02:55:18;;;;;;;37.00;18.38;;;;;;;;;;4969090;28;20046;-79
2022/03/10 02:57:44;;;;;;;37.40;19.10;;;;;;;;;;4963389;28;20124;-79
2022/03/10 03:00:10;;;;;;;44.00;18.67;;;;;;;;;;4972118;28;20552;-79
2022/03/10 03:02:36;;;;;;;37.67;20.25;;;;;;;;;;4936202;28;20110;-79
2022/03/10 03:05:04;;;;;;;33.45;18.23;;;;;;;;;;4955426;28;20473;-79
2022/03/10 03:07:30;;;;;;;37.42;19.00;;;;;;;;;;4934169;28;20062;-79
2022/03/10 03:09:55;;;;;;;35.83;17.15;;;;;;;;;;4952767;28;20032;-79
2022/03/10 03:12:21;;;;;;;35.35;18.30;;;;;;;;;;4960776;28;20085;-79
2022/03/10 03:14:47;;;;;;;33.78;17.95;;;;;;;;;;4972274;28;20066;-79
2022/03/10 03:17:12;;;;;;;33.05;19.10;;;;;;;;;;4942775;28;20109;-79
2022/03/10 03:19:38;;;;;;;33.40;17.35;;;;;;;;;;4951435;28;20110;-79
2022/03/10 03:22:04;;;;;;;36.08;19.20;;;;;;;;;;4950478;28;20058;-79
2022/03/10 03:24:30;;;;;;;38.20;19.88;;;;;;;;;;4935383;28;25418;-79
2022/03/10 03:26:56;;;;;;;38.85;19.58;;;;;;;;;;4959946;28;20050;-79
2022/03/10 03:29:22;;;;;;;37.38;19.92;;;;;;;;;;4943674;28;20058;-79
2022/03/10 03:31:48;;;;;;;40.80;20.73;;;;;;;;;;4966657;28;20062;-79
2022/03/10 03:34:13;;;;;;;40.95;20.77;;;;;;;;;;4964481;28;20065;-79
2022/03/10 03:36:41;;;;;;;35.22;19.10;;;;;;;;;;4966377;28;20094;-79
2022/03/10 03:39:07;;;;;;;38.22;20.58;;;;;;;;;;4965858;28;20043;-79
2022/03/10 03:41:33;;;;;;;43.42;21.38;;;;;;;;;;4950130;28;20097;-79
2022/03/10 03:43:59;;;;;;;42.75;20.60;;;;;;;;;;4966318;28;20050;-79
2022/03/10 03:46:24;;;;;;;37.25;20.67;;;;;;;;;;4966287;28;20611;-79
2022/03/10 03:48:50;;;;;;;40.28;21.25;;;;;;;;;;4950089;28;20149;-79
2022/03/10 03:51:16;;;;;;;43.58;21.77;;;;;;;;;;4937192;28;20141;-79
2022/03/10 03:53:41;;;;;;;42.75;22.08;;;;;;;;;;4964984;28;20145;-80
2022/03/10 03:56:07;;;;;;;43.90;22.10;;;;;;;;;;4942575;28;20063;-80
2022/03/10 03:58:33;;;;;;;39.08;20.83;;;;;;;;;;4965190;28;20039;-82
2022/03/10 04:00:59;;;;;;;39.45;20.40;;;;;;;;;;4964917;28;20526;-82
2022/03/10 04:03:25;;;;;;;39.47;21.00;;;;;;;;;;4945493;28;20043;-81
2022/03/10 04:05:50;;;;;;;44.35;22.08;;;;;;;;;;4931638;28;20440;-82
2022/03/10 04:08:16;;;;;;;36.78;20.30;;;;;;;;;;4963722;28;20533;-81
2022/03/10 04:10:42;;;;;;;39.05;20.77;;;;;;;;;;4955689;28;20145;-81
2022/03/10 04:13:09;;;;;;;40.90;21.20;;;;;;;;;;4947475;28;20043;-82
2022/03/10 04:15:35;;;;;;;40.17;20.85;;;;;;;;;;4948735;28;20045;-82
2022/03/10 04:18:01;;;;;;;37.47;19.33;;;;;;;;;;4957540;28;20043;-81
2022/03/10 04:20:28;;;;;;;41.97;20.05;;;;;;;;;;4948311;28;20074;-82
2022/03/10 04:22:54;;;;;;;36.78;19.52;;;;;;;;;;4930948;28;20114;-81
2022/03/10 04:25:19;;;;;;;38.42;20.23;;;;;;;;;;4936365;28;20157;-82
2022/03/10 04:27:45;;;;;;;37.97;21.00;;;;;;;;;;4950841;28;20031;-83
2022/03/10 04:30:11;;;;;;;38.90;19.70;;;;;;;;;;4967367;28;20065;-81
2022/03/10 04:32:45;;;;;;;40.25;20.67;;;;;;;;;;4945077;28;20035;-82
2022/03/10 04:35:16;;;;;;;40.03;21.15;;;;;;;;;;4933941;28;20362;-81
2022/03/10 04:37:43;;;;;;;41.47;20.80;;;;;;;;;;4938535;28;20111;-81
2022/03/10 04:40:09;;;;;;;46.75;22.48;;;;;;;;;;4944344;28;20066;-81
2022/03/10 04:42:36;;;;;;;45.60;22.77;;;;;;;;;;4948797;28;20039;-82
2022/03/10 04:45:03;;;;;;;45.17;23.25;;;;;;;;;;4948679;28;20359;-82
2022/03/10 04:47:28;;;;;;;49.50;23.35;;;;;;;;;;4939552;28;20482;-81
2022/03/10 04:49:54;;;;;;;44.58;23.95;;;;;;;;;;4953615;28;20066;-82
2022/03/10 04:52:20;;;;;;;42.60;22.35;;;;;;;;;;4929565;28;1141166;-81
2022/03/10 04:54:46;;;;;;;46.00;22.67;;;;;;;;;;4946798;28;20867;-82
2022/03/10 04:57:11;;;;;;;45.80;23.02;;;;;;;;;;4933254;28;20066;-84
2022/03/10 04:59:37;;;;;;;45.55;23.67;;;;;;;;;;4950245;28;20586;-81
2022/03/10 05:02:03;;;;;;;45.75;22.70;;;;;;;;;;4963351;28;20117;-84
2022/03/10 05:04:29;;;;;;;47.38;24.23;;;;;;;;;;4941121;28;20485;-82
2022/03/10 05:06:54;;;;;;;47.28;23.25;;;;;;;;;;4952198;28;20098;-83
2022/03/10 05:09:20;;;;;;;44.38;23.58;;;;;;;;;;4965522;28;20511;-83
2022/03/10 05:11:46;;;;;;;45.60;23.05;;;;;;;;;;4963312;28;20101;-82
2022/03/10 05:14:11;;;;;;;46.03;23.90;;;;;;;;;;4971103;28;20047;-83
2022/03/10 05:16:37;;;;;;;44.47;22.02;;;;;;;;;;4967365;28;20240;-84
2022/03/10 05:19:03;;;;;;;50.25;23.58;;;;;;;;;;4966918;28;20039;-84
2022/03/10 05:21:28;;;;;;;44.38;22.67;;;;;;;;;;4949319;28;20110;-83
2022/03/10 05:23:54;;;;;;;44.00;21.42;;;;;;;;;;4960993;28;20035;-83
2022/03/10 05:26:20;;;;;;;45.53;23.42;;;;;;;;;;4948061;28;20058;-83
2022/03/10 05:28:46;;;;;;;45.17;23.98;;;;;;;;;;4951126;28;20047;-83
2022/03/10 05:31:11;;;;;;;47.63;23.08;;;;;;;;;;4952947;28;20051;-83
2022/03/10 05:33:37;;;;;;;48.13;24.13;;;;;;;;;;4954744;28;20050;-83
2022/03/10 05:36:03;;;;;;;51.22;24.50;;;;;;;;;;4964575;28;20134;-83
2022/03/10 05:38:29;;;;;;;47.45;24.02;;;;;;;;;;4951030;28;20026;-83
2022/03/10 05:40:54;;;;;;;49.38;24.90;;;;;;;;;;4976012;28;20635;-78
2022/03/10 05:43:20;;;;;;;52.55;25.15;;;;;;;;;;4955641;28;20063;-80
2022/03/10 05:45:46;;;;;;;47.47;23.52;;;;;;;;;;4960984;28;20051;-79
2022/03/10 05:48:11;;;;;;;52.30;25.30;;;;;;;;;;4939059;28;20468;-79
2022/03/10 05:50:37;;;;;;;52.58;24.98;;;;;;;;;;4950249;28;20053;-80
2022/03/10 05:53:03;;;;;;;47.10;23.42;;;;;;;;;;4945312;28;20071;-80
2022/03/10 05:55:30;;;;;;;48.10;22.40;;;;;;;;;;4948347;28;20043;-80
2022/03/10 05:57:56;;;;;;;46.95;24.13;;;;;;;;;;4940899;28;20057;-80
2022/03/10 06:00:23;;;;;;;45.67;22.98;;;;;;;;;;4946545;28;20043;-80
2022/03/10 06:02:49;;;;;;;53.33;25.20;;;;;;;;;;4945565;29;20397;-80
2022/03/10 06:05:15;;;;;;;49.03;24.83;;;;;;;;;;4956744;28;20122;-80
2022/03/10 06:07:40;;;;;;;48.95;24.33;;;;;;;;;;4946752;28;20045;-80
2022/03/10 06:10:07;;;;;;;53.22;24.35;;;;;;;;;;4959002;28;20043;-80
2022/03/10 06:12:33;;;;;;;39.70;20.98;;;;;;;;;;4953332;28;20550;-80
2022/03/10 06:15:04;;;;;;;41.85;22.10;;;;;;;;;;4973895;28;20042;-79
2022/03/10 06:17:30;;;;;;;45.28;23.13;;;;;;;;;;4936501;28;20531;-81
2022/03/10 06:19:56;;;;;;;41.63;21.25;;;;;;;;;;4942989;28;20047;-80
2022/03/10 06:22:24;;;;;;;38.22;20.75;;;;;;;;;;4937120;28;20111;-80
2022/03/10 06:24:51;;;;;;;43.83;21.48;;;;;;;;;;4946763;28;20042;-80
2022/03/10 06:27:18;;;;;;;49.13;23.50;;;;;;;;;;4940487;28;20047;-80
2022/03/10 06:29:44;;;;;;;39.90;21.95;;;;;;;;;;4929408;28;20043;-80
2022/03/10 06:32:12;;;;;;;39.63;21.33;;;;;;;;;;4958271;28;20374;-81
2022/03/10 06:34:38;;;;;;;37.83;19.98;;;;;;;;;;4943773;28;20094;-81
2022/03/10 06:37:05;;;;;;;45.20;22.42;;;;;;;;;;4946572;28;20051;-81
2022/03/10 06:39:31;;;;;;;42.22;22.33;;;;;;;;;;4948764;28;20522;-82
2022/03/10 06:41:57;;;;;;;40.80;21.00;;;;;;;;;;4945277;28;20047;-82
2022/03/10 06:44:23;;;;;;;41.05;20.85;;;;;;;;;;4926433;28;20050;-82
2022/03/10 06:46:49;;;;;;;39.80;20.58;;;;;;;;;;4948817;28;20043;-82
2022/03/10 06:49:16;;;;;;;44.45;20.30;;;;;;;;;;4939371;28;20138;-82
2022/03/10 06:51:42;;;;;;;41.08;21.33;;;;;;;;;;4945942;28;24687;-82
2022/03/10 06:54:08;;;;;;;40.72;21.33;;;;;;;;;;4943847;28;20039;-81
2022/03/10 06:56:34;;;;;;;38.92;21.15;;;;;;;;;;4961210;28;20086;-81
2022/03/10 06:58:59;;;;;;;35.60;20.17;;;;;;;;;;4936538;28;20134;-82
2022/03/10 07:01:25;;;;;;;38.13;18.83;;;;;;;;;;4963757;28;20121;-82
2022/03/10 07:03:51;;;;;;;39.33;20.48;;;;;;;;;;4957530;28;20039;-82
2022/03/10 07:06:17;;;;;;;35.08;20.15;;;;;;;;;;4941261;28;20071;-81
2022/03/10 07:08:43;;;;;;;38.53;19.63;;;;;;;;;;4945841;28;20043;-81
2022/03/10 07:11:09;;;;;;;40.35;21.45;;;;;;;;;;4947927;28;20322;-84
2022/03/10 07:13:36;;;;;;;39.40;21.02;;;;;;;;;;4938018;28;20093;-82
2022/03/10 07:16:02;;;;;;;41.72;20.60;;;;;;;;;;4948590;28;20455;-82
2022/03/10 07:18:28;;;;;;;36.78;20.73;;;;;;;;;;4947452;28;20065;-83
2022/03/10 07:20:54;;;;;;;36.17;19.73;;;;;;;;;;4948404;28;20197;-84
2022/03/10 07:23:19;;;;;;;39.15;20.67;;;;;;;;;;4948876;28;20043;-84
2022/03/10 07:25:48;;;;;;;39.60;20.90;;;;;;;;;;4939191;28;20066;-84
2022/03/10 07:28:14;;;;;;;40.13;20.23;;;;;;;;;;4941870;28;20043;-82
2022/03/10 07:30:39;;;;;;;40.72;22.88;;;;;;;;;;4957242;28;20153;-86
2022/03/10 07:33:05;;;;;;;40.95;20.60;;;;;;;;;;4942852;28;20046;-84
2022/03/10 07:35:31;;;;;;;38.63;21.83;;;;;;;;;;4939933;28;20468;-83
2022/03/10 07:37:59;;;;;;;37.20;20.10;;;;;;;;;;4967732;28;20042;-82
2022/03/10 07:40:25;;;;;;;38.55;21.38;;;;;;;;;;4977024;28;20137;-81
2022/03/10 07:42:51;;;;;;;38.05;20.55;;;;;;;;;;4968024;28;20043;-83
2022/03/10 07:45:16;;;;;;;35.92;21.13;;;;;;;;;;4968485;28;20579;-82
2022/03/10 07:47:42;;;;;;;41.13;21.13;;;;;;;;;;4942472;28;20164;-83
2022/03/10 07:50:08;;;;;;;48.30;21.70;;;;;;;;;;4951499;28;20618;-85
2022/03/10 07:52:34;;;;;;;35.22;21.35;;;;;;;;;;4966785;28;20302;-81
2022/03/10 07:55:00;;;;;;;37.58;21.85;;;;;;;;;;4950853;28;20154;-82
2022/03/10 07:57:26;;;;;;;42.53;21.58;;;;;;;;;;4950663;28;20552;-82
2022/03/10 07:59:52;;;;;;;38.17;20.88;;;;;;;;;;4952665;28;20105;-82
2022/03/10 08:02:18;;;;;;;38.45;21.55;;;;;;;;;;4951030;28;20039;-82
2022/03/10 08:04:45;;;;;;;38.67;21.02;;;;;;;;;;4947886;28;20037;-82
2022/03/10 08:07:11;;;;;;;38.80;21.58;;;;;;;;;;4931734;28;20139;-82
2022/03/10 08:09:37;;;;;;;37.88;21.30;;;;;;;;;;4965627;28;20044;-80
2022/03/10 08:12:03;;;;;;;40.55;22.85;;;;;;;;;;4948026;28;20607;-82
2022/03/10 08:14:29;;;;;;;40.47;20.83;;;;;;;;;;4934879;28;20042;-83
2022/03/10 08:16:55;;;;;;;34.88;20.25;;;;;;;;;;4962763;28;20075;-83
2022/03/10 08:19:21;;;;;;;34.42;19.75;;;;;;;;;;4931884;29;20141;-83
2022/03/10 08:21:47;;;;;;;36.67;22.15;;;;;;;;;;4950501;28;20693;-82
2022/03/10 08:24:13;;;;;;;37.38;20.90;;;;;;;;;;4952040;28;20054;-82
2022/03/10 08:26:39;;;;;;;36.35;20.38;;;;;;;;;;4965288;28;20035;-81
2022/03/10 08:29:06;;;;;;;36.97;21.52;;;;;;;;;;4927307;28;20067;-81
2022/03/10 08:31:31;;;;;;;37.17;21.60;;;;;;;;;;4947354;28;20043;-82
2022/03/10 08:33:57;;;;;;;48.22;22.42;;;;;;;;;;4954404;28;20117;-81
2022/03/10 08:36:23;;;;;;;36.75;22.90;;;;;;;;;;4951891;28;20043;-81
2022/03/10 08:38:49;;;;;;;37.30;22.80;;;;;;;;;;4931234;28;20116;-82
2022/03/10 08:41:14;;;;;;;41.42;23.77;;;;;;;;;;4957144;28;20065;-83
2022/03/10 08:43:41;;;;;;;41.90;24.15;;;;;;;;;;4945952;28;20069;-83
2022/03/10 08:46:06;;;;;;;38.42;21.98;;;;;;;;;;4933594;28;20122;-82
2022/03/10 08:48:34;;;;;;;36.20;21.75;;;;;;;;;;4945388;28;20564;-81
2022/03/10 08:51:00;;;;;;;39.10;22.67;;;;;;;;;;4963211;28;20067;-82
2022/03/10 08:53:26;;;;;;;41.95;23.60;;;;;;;;;;4949468;28;20069;-82
2022/03/10 08:55:52;;;;;;;39.67;21.52;;;;;;;;;;4940002;28;20458;-81
2022/03/10 08:58:18;;;;;;;36.42;22.08;;;;;;;;;;4944277;28;20039;-80
2022/03/10 09:00:44;;;;;;;41.22;24.27;;;;;;;;;;4952068;28;20063;-81
2022/03/10 09:03:10;;;;;;;39.42;24.33;;;;;;;;;;4937345;28;20043;-82
2022/03/10 09:05:37;;;;;;;37.67;22.83;;;;;;;;;;4946515;28;20063;-82
2022/03/10 09:08:03;;;;;;;41.10;22.75;;;;;;;;;;4979493;28;20043;-83
2022/03/10 09:10:29;;;;;;;41.05;22.40;;;;;;;;;;4965299;28;20045;-82
2022/03/10 09:12:56;;;;;;;38.05;22.75;;;;;;;;;;4932078;28;20421;-80
2022/03/10 09:15:22;;;;;;;36.45;21.38;;;;;;;;;;4942323;28;20093;-81
2022/03/10 09:17:48;;;;;;;38.58;22.25;;;;;;;;;;4940942;28;20043;-80
2022/03/10 09:20:14;;;;;;;39.08;23.15;;;;;;;;;;4945610;28;20090;-80
2022/03/10 09:22:41;;;;;;;39.92;23.42;;;;;;;;;;4939065;28;20031;-81
2022/03/10 09:25:08;;;;;;;37.00;22.83;;;;;;;;;;4943038;28;20103;-83
2022/03/10 09:27:38;;;;;;;37.78;23.83;;;;;;;;;;4946054;28;20039;-83
2022/03/10 09:30:05;;;;;;;40.55;23.80;;;;;;;;;;4950382;28;20136;-80
2022/03/10 09:32:35;;;;;;;36.38;23.08;;;;;;;;;;4963721;28;20038;-81
2022/03/10 09:35:07;;;;;;;42.17;24.48;;;;;;;;;;4932488;28;20053;-81
2022/03/10 09:37:33;;;;;;;33.58;22.10;;;;;;;;;;4947751;28;20031;-82
2022/03/10 09:39:59;;;;;;;36.53;23.33;;;;;;;;;;4949990;28;20093;-82
2022/03/10 09:42:33;;;;;;;37.40;22.95;;;;;;;;;;4942313;28;20054;-80
2022/03/10 09:45:02;;;;;;;38.53;22.98;;;;;;;;;;4952016;28;20043;-82
2022/03/10 09:47:27;;;;;;;35.03;22.95;;;;;;;;;;4955201;28;20114;-81
2022/03/10 09:49:54;;;;;;;36.90;22.23;;;;;;;;;;4958490;28;20101;-80
2022/03/10 09:52:20;;;;;;;36.63;22.38;;;;;;;;;;4955115;28;20046;-82
2022/03/10 09:54:46;;;;;;;34.92;21.20;;;;;;;;;;4942056;28;20404;-83
2022/03/10 09:57:14;;;;;;;31.67;21.23;;;;;;;;;;4931222;28;20043;-82
2022/03/10 09:59:50;;;;;;;34.03;22.05;;;;;;;;;;4931438;28;20045;-82
2022/03/10 10:02:16;;;;;;;;;;;;;;;;;;4970120;28;20039;-81
2022/03/10 10:04:42;;;;;;;38.08;24.27;;;;;;;;;;4954495;28;19970;-82
2022/03/10 10:07:10;;;;;;;36.92;21.98;;;;;;;;;;4944164;28;20348;-83
2022/03/10 10:09:46;;;;;;;33.42;22.13;;;;;;;;;;4932203;28;20067;-84
2022/03/10 10:12:14;;;;;;;37.20;23.55;;;;;;;;;;4938874;28;20448;-82
2022/03/10 10:14:42;;;;;;;38.33;25.02;;;;;;;;;;4942520;28;20106;-82
2022/03/10 10:17:08;;;;;;;32.45;21.52;;;;;;;;;;4944589;28;20039;-81
2022/03/10 10:19:35;;;;;;;33.78;21.83;;;;;;;;;;4945557;28;20035;-83
2022/03/10 10:22:15;;;;;;;35.85;22.70;;;;;;;;;;4946597;28;20119;-82
2022/03/10 10:24:49;;;;;;;31.35;20.75;;;;;;;;;;4946606;28;20089;-82
2022/03/10 10:27:18;;;;;;;32.00;22.20;;;;;;;;;;4959886;28;20047;-84
2022/03/10 10:29:45;;;;;;;29.48;21.55;;;;;;;;;;4942807;28;20070;-84
2022/03/10 10:32:11;;;;;;;30.85;21.35;;;;;;;;;;4946206;28;20050;-81
2022/03/10 10:34:37;;;;;;;30.20;21.88;;;;;;;;;;4933770;28;20436;-84
2022/03/10 10:37:03;;;;;;;29.02;21.20;;;;;;;;;;4958432;28;20075;-84
2022/03/10 10:39:28;;;;;;;30.92;20.65;;;;;;;;;;4965749;28;20035;-83
2022/03/10 10:41:54;;;;;;;27.98;21.02;;;;;;;;;;4947545;28;20519;-81
2022/03/10 10:44:23;;;;;;;28.88;19.02;;;;;;;;;;4961524;28;20137;-81
2022/03/10 10:46:54;;;;;;;26.83;19.35;;;;;;;;;;4949846;28;20045;-83
2022/03/10 10:49:22;;;;;;;26.88;19.42;;;;;;;;;;4965170;28;20053;-81
2022/03/10 10:51:55;;;;;;;26.60;19.70;;;;;;;;;;4940786;28;20073;-82
2022/03/10 10:54:21;;;;;;;26.00;18.83;;;;;;;;;;4965530;28;20558;-82
2022/03/10 10:56:54;;;;;;;24.52;19.20;;;;;;;;;;4966564;28;20058;-82
2022/03/10 10:59:29;;;;;;;24.45;17.02;;;;;;;;;;4964469;28;20085;-81
2022/03/10 11:02:18;;;;;;;24.58;18.85;;;;;;;;;;4965388;28;20050;-81
2022/03/10 11:04:48;;;;;;;22.63;17.27;;;;;;;;;;4954441;28;20058;-81
2022/03/10 11:07:15;;;;;;;25.23;16.48;;;;;;;;;;4951208;28;20047;-83
2022/03/10 11:09:46;;;;;;;23.67;16.85;;;;;;;;;;4950562;28;20105;-81
2022/03/10 11:12:14;;;;;;;22.10;16.67;;;;;;;;;;4966890;28;20484;-81
2022/03/10 11:14:41;;;;;;;21.98;15.77;;;;;;;;;;4948590;28;20496;-83
2022/03/10 11:17:07;;;;;;;17.83;14.02;;;;;;;;;;4955744;28;20134;-84
2022/03/10 11:19:37;;;;;;;18.88;12.32;;;;;;;;;;4958541;28;20117;-83
2022/03/10 11:22:11;;;;;;;16.95;12.85;;;;;;;;;;4967244;28;20093;-85
2022/03/10 11:24:56;;;;;;;17.02;12.38;;;;;;;;;;4971688;28;20083;-85
2022/03/10 11:27:27;;;;;;;14.52;10.50;;;;;;;;;;4982498;28;20078;-85
2022/03/10 11:29:54;;;;;;;13.88;11.63;;;;;;;;;;4966093;28;20035;-85
2022/03/10 11:32:25;;;;;;;16.15;13.25;;;;;;;;;;4982556;28;20065;-85
2022/03/10 11:35:01;;;;;;;18.02;13.32;;;;;;;;;;4956950;28;20053;-85
2022/03/10 11:37:42;;;;;;;16.13;13.50;;;;;;;;;;4952271;28;20038;-85
2022/03/10 11:40:09;;;;;;;21.08;14.63;;;;;;;;;;4972746;28;20070;-86
2022/03/10 11:42:36;;;;;;;15.35;13.73;;;;;;;;;;4952970;28;20039;-85
2022/03/10 11:45:17;;;;;;;17.30;14.40;;;;;;;;;;4962695;28;20049;-85
2022/03/10 11:47:45;;;;;;;16.55;14.80;;;;;;;;;;4967199;28;20157;-86
2022/03/10 11:50:23;;;;;;;18.45;15.90;;;;;;;;;;4956120;28;20050;-85
2022/03/10 11:53:03;;;;;;;16.98;15.13;;;;;;;;;;4968804;28;20057;-86
2022/03/10 11:55:52;;;;;;;17.15;14.68;;;;;;;;;;4970319;28;20101;-85
2022/03/10 11:58:32;;;;;;;19.15;15.50;;;;;;;;;;4970037;28;20039;-86
2022/03/10 12:00:58;;;;;;;19.50;16.98;;;;;;;;;;4945099;28;20129;-85
2022/03/10 12:03:30;;;;;;;19.55;15.98;;;;;;;;;;4950713;28;20137;-85
2022/03/10 12:06:01;;;;;;;18.70;16.70;;;;;;;;;;4963199;28;20042;-86
2022/03/10 12:08:32;;;;;;;20.02;17.27;;;;;;;;;;4967929;28;20403;-84
2022/03/10 12:10:59;;;;;;;23.05;18.13;;;;;;;;;;4956582;28;20074;-84
2022/03/10 12:13:30;;;;;;;20.70;18.50;;;;;;;;;;4972030;28;20097;-84
2022/03/10 12:15:57;;;;;;;23.10;19.35;;;;;;;;;;4971866;28;20518;-83
2022/03/10 12:18:25;;;;;;;20.75;17.95;;;;;;;;;;4970406;28;20062;-83
2022/03/10 12:20:56;;;;;;;25.80;18.02;;;;;;;;;;4951364;28;20073;-84
2022/03/10 12:23:25;;;;;;;24.40;18.83;;;;;;;;;;4966686;28;20046;-84
2022/03/10 12:26:00;;;;;;;22.40;18.25;;;;;;;;;;4952143;28;20040;-82
2022/03/10 12:28:32;;;;;;;23.35;17.92;;;;;;;;;;4962130;28;20047;-82
2022/03/10 12:31:16;;;;;;;22.70;18.25;;;;;;;;;;4948047;28;20418;-84
2022/03/10 12:33:53;;;;;;;23.90;18.55;;;;;;;;;;4953961;28;20359;-82
2022/03/10 12:36:43;;;;;;;25.58;17.83;;;;;;;;;;4969368;28;20366;-83
2022/03/10 12:39:13;;;;;;;22.25;16.73;;;;;;;;;;4948828;28;20121;-83
2022/03/10 12:41:42;;;;;;;19.58;16.15;;;;;;;;;;4963422;28;20047;-84
2022/03/10 12:44:09;;;;;;;21.50;16.95;;;;;;;;;;4970527;28;20054;-84
2022/03/10 12:46:38;;;;;;;24.05;16.08;;;;;;;;;;4953550;28;20045;-84
2022/03/10 12:49:57;;;;;;;22.65;17.88;;;;;;;;;;4950903;28;20062;-84
2022/03/10 12:52:27;;;;;;;22.65;16.88;;;;;;;;;;4953752;28;20049;-84
2022/03/10 12:54:56;;;;;;;19.98;16.02;;;;;;;;;;4968810;28;20097;-83
2022/03/10 12:57:21;;;;;;;20.77;16.25;;;;;;;;;;4956567;28;20039;-82
2022/03/10 12:59:49;;;;;;;20.13;16.95;;;;;;;;;;4956836;28;20078;-83
2022/03/10 13:02:16;;;;;;;20.17;16.17;;;;;;;;;;4969150;28;20411;-84
2022/03/10 13:04:57;;;;;;;18.25;14.23;;;;;;;;;;4953096;28;20046;-83
2022/03/10 13:07:24;;;;;;;18.95;14.00;;;;;;;;;;4952952;28;20405;-83
2022/03/10 13:09:52;;;;;;;16.60;13.20;;;;;;;;;;4965492;28;20069;-84
2022/03/10 13:12:28;;;;;;;17.55;13.23;;;;;;;;;;4971378;28;20035;-85
2022/03/10 13:14:53;;;;;;;;;;;;;;;;;;4983478;28;20438;-84
2022/03/10 13:17:31;;;;;;;17.58;12.95;;;;;;;;;;4953185;28;20013;-86
2022/03/10 13:19:56;;;;;;;16.77;13.23;;;;;;;;;;4951327;28;20062;-84
2022/03/10 13:22:22;;;;;;;16.98;13.30;;;;;;;;;;4956483;28;20051;-84
2022/03/10 13:24:50;;;;;;;16.60;13.73;;;;;;;;;;4969628;28;20050;-84
2022/03/10 13:27:18;;;;;;;16.13;12.98;;;;;;;;;;4985808;28;20046;-82
2022/03/10 13:29:52;;;;;;;16.70;13.52;;;;;;;;;;4951556;28;21229;-83
2022/03/10 13:32:18;;;;;;;16.13;13.10;;;;;;;;;;4955404;28;20047;-82
2022/03/10 13:34:44;;;;;;;18.65;13.93;;;;;;;;;;4948462;28;20054;-83
2022/03/10 13:37:11;;;;;;;16.17;13.05;;;;;;;;;;4959890;28;20114;-82
2022/03/10 13:39:37;;;;;;;19.70;14.20;;;;;;;;;;4956359;28;20078;-82
2022/03/10 13:42:09;;;;;;;21.08;13.25;;;;;;;;;;4946656;28;20502;-83
2022/03/10 13:44:35;;;;;;;18.40;13.45;;;;;;;;;;4961012;28;20547;-83
2022/03/10 13:47:05;;;;;;;20.17;13.98;;;;;;;;;;4935428;28;20066;-83
2022/03/10 13:49:40;;;;;;;18.40;13.18;;;;;;;;;;4934488;28;20047;-85
2022/03/10 13:52:11;;;;;;;18.77;14.70;;;;;;;;;;4963007;28;20106;-84
2022/03/10 13:54:40;;;;;;;17.23;13.48;;;;;;;;;;4952829;28;20282;-85
2022/03/10 13:57:05;;;;;;;17.95;11.65;;;;;;;;;;4942290;28;20054;-84
2022/03/10 13:59:31;;;;;;;15.27;11.82;;;;;;;;;;4966159;28;20126;-84
2022/03/10 14:01:57;;;;;;;15.15;12.05;;;;;;;;;;4945383;28;20400;-82
2022/03/10 14:04:23;;;;;;;15.25;11.43;;;;;;;;;;4950972;28;20047;-83
2022/03/10 14:06:50;;;;;;;16.85;11.48;;;;;;;;;;4966773;28;20723;-83
2022/03/10 14:09:20;;;;;;;16.00;12.18;;;;;;;;;;4969095;28;20042;-85
2022/03/10 14:11:49;;;;;;;13.88;11.07;;;;;;;;;;4935820;28;20043;-82
2022/03/10 14:14:15;;;;;;;15.63;11.93;;;;;;;;;;4951491;28;20039;-83
2022/03/10 14:16:52;;;;;;;13.30;11.70;;;;;;;;;;4964894;28;20101;-84
2022/03/10 14:19:51;;;;;;;12.02;10.82;;;;;;;;;;4960528;28;20055;-84
2022/03/10 14:22:21;;;;;;;12.02;10.65;;;;;;;;;;4882203;28;20039;-83
2022/03/10 14:24:55;;;;;;;13.32;10.85;;;;;;;;;;4944140;28;20034;-85
2022/03/10 14:27:21;;;;;;;15.30;11.45;;;;;;;;;;4969843;28;20030;-85